Alburnett, Iowa
Current Conditions -  °F | °C
As of 8:52 AM on Friday 31 Oct 2014 (Local Time) from KCID Reporting Station
Clear Clear  
Wind Chill: 18°   Ceiling: Unl
Heat Index: 30°   Visibility: 10mi
Dew Point: 20°   Wind: 20mph
Humidity: 66%   Direction: 340°NNW
Pressure: 30.37"   Gusts: 29mph
Location:  42.15°N, 91.62°W
Report Text: KCID 311352Z 34017G25KT 10SM CLR M01/M07 A3037 RMK AO2 SLP289 T10111067
Loading
Personal Weather Stations






























Interactive Weather Map
Tropical Storm Tracking
New forecast layout! Learn more

10-Day Weather Forecast

Advertisements
Track Severe Weather on mobile